Seadelta — 9HA3530 — position and weather

sailwx.info

Track history (hours):
 
Tides and Currents Weather Stations Pressure Air Temp Water Temp Dewpoint Dewpoint Depression Visibility Wind Speed Wind Dir Waves Ship Positions

Seadelta

Last reported at 2017-Dec-13 17:31 UTC. Time now 2017-Dec-16 13:02 UTC.
Position N 35°38' E 032°06'.

Length 250 m; draft 8.4 m.

Type: Tanker. MMSI: 229700000.

Date/timePositionNaut miles runAvg speedWind from/ knotsBaromVisibWave heightAir tempDewpointWater temp
2017-Dec-13 17:31N 35°38' E 032°06'411.9
2017-Dec-13 17:11N 35°39' E 032°11'312.1
2017-Dec-13 16:54N 35°40' E 032°15'3712.3
2017-Dec-13 13:53N 35°47' E 032°60'  
2017-Dec-09 09:53N 35°37' E 026°05'411.6
2017-Dec-09 09:30N 35°39' E 026°01'611.8
2017-Dec-09 09:00N 35°43' E 025°55'611.6
2017-Dec-09 08:31N 35°46' E 025°49'611.5
2017-Dec-09 08:00N 35°49' E 025°43'612.2
2017-Dec-09 07:30N 35°52' E 025°36'815.3
2017-Dec-09 07:00N 35°56' E 025°28'815.4
2017-Dec-09 06:30N 36°01' E 025°20'713.3
2017-Dec-09 06:00N 36°04' E 025°14'611.8
2017-Dec-09 05:30N 36°07' E 025°07'611.9
2017-Dec-09 05:00N 36°11' E 025°01'611.9
2017-Dec-09 04:30N 36°14' E 024°55'611.8
2017-Dec-09 04:00N 36°17' E 024°49'611.8
2017-Dec-09 03:30N 36°20' E 024°43'611.6
2017-Dec-09 03:00N 36°24' E 024°37'611.6
2017-Dec-09 02:30N 36°27' E 024°31'611.8
2017-Dec-09 02:00N 36°30' E 024°25'612.0
2017-Dec-09 01:30N 36°33' E 024°18'611.5
2017-Dec-09 01:00N 36°36' E 024°12'611.7
2017-Dec-09 00:30N 36°41' E 024°09'611.9
2017-Dec-09 00:00N 36°47' E 024°06'611.8
2017-Dec-08 23:30N 36°52' E 024°02'611.8
2017-Dec-08 23:00N 36°57' E 023°59'611.9
2017-Dec-08 22:30N 37°03' E 023°56'611.9
2017-Dec-08 22:00N 37°08' E 023°53'611.8
2017-Dec-08 21:29N 37°13' E 023°49'711.9
2017-Dec-08 20:54N 37°20' E 023°46'1111.7
2017-Dec-08 19:59N 37°30' E 023°43'511.4
2017-Dec-08 19:30N 37°36' E 023°42'611.6
2017-Dec-08 19:00N 37°41' E 023°41'611.6
2017-Dec-08 18:30N 37°47' E 023°38'612.4
2017-Dec-08 18:01N 37°51' E 023°32'2 3.2
2017-Dec-08 17:31N 37°52' E 023°31'0 0.2
2017-Dec-08 16:58N 37°53' E 023°31'0 0.3
2017-Dec-08 16:28N 37°53' E 023°31'0 0.1
2017-Dec-08 15:58N 37°53' E 023°31'0 0.0
2017-Dec-08 15:28N 37°53' E 023°31'0 0.1
2017-Dec-08 14:58N 37°53' E 023°31'0 0.1
2017-Dec-08 14:28N 37°53' E 023°31'0 0.1
2017-Dec-08 13:58N 37°53' E 023°31'0 0.1
2017-Dec-08 13:28N 37°53' E 023°31'0 0.1
2017-Dec-08 12:58N 37°53' E 023°31'0 0.0
2017-Dec-08 12:28N 37°53' E 023°31'0 0.2
2017-Dec-08 11:58N 37°53' E 023°31'0 0.3
2017-Dec-08 11:28N 37°53' E 023°31'0 0.1
2017-Dec-08 11:00N 37°52' E 023°31'0 0.1
2017-Dec-08 10:30N 37°52' E 023°31'0 0.6
2017-Dec-08 10:00N 37°52' E 023°32'2 4.3
2017-Dec-08 09:30N 37°51' E 023°34'4 8.1
2017-Dec-08 09:00N 37°55' E 023°37'5 9.1
2017-Dec-08 08:30N 37°58' E 023°33'4 8.1
2017-Dec-08 08:00N 38°01' E 023°36'0 0.0
2017-Dec-08 07:30N 38°01' E 023°36'0 0.0
2017-Dec-08 07:00N 38°01' E 023°36'0 0.0
2017-Dec-08 06:30N 38°01' E 023°36'0 0.0
2017-Dec-08 06:00N 38°01' E 023°36'0 0.0
2017-Dec-08 05:30N 38°01' E 023°36'0 0.0
2017-Dec-08 05:00N 38°01' E 023°36'0 0.0
2017-Dec-08 04:30N 38°01' E 023°36'0 0.0
2017-Dec-08 04:00N 38°01' E 023°36'0 0.0
2017-Dec-08 03:30N 38°01' E 023°36'0 0.0
2017-Dec-08 03:00N 38°01' E 023°36'0 0.0
2017-Dec-08 02:30N 38°01' E 023°36'0 0.0
2017-Dec-08 01:57N 38°01' E 023°36'0 0.0
2017-Dec-08 01:30N 38°01' E 023°36'0 0.0
2017-Dec-08 01:00N 38°01' E 023°36'0 0.0
2017-Dec-08 00:30N 38°01' E 023°36'0 0.0
2017-Dec-08 00:00N 38°01' E 023°36'0 0.0
2017-Dec-07 23:27N 38°01' E 023°36'0 0.0
2017-Dec-07 22:57N 38°01' E 023°36'0 0.0
2017-Dec-07 22:30N 38°01' E 023°36'0 0.0
2017-Dec-07 22:00N 38°01' E 023°36'0 0.0
2017-Dec-07 21:27N 38°01' E 023°36'0 0.0
2017-Dec-07 21:00N 38°01' E 023°36'0 0.0
2017-Dec-07 20:27N 38°01' E 023°36'0 0.0
2017-Dec-07 20:00N 38°01' E 023°36'0 0.0
2017-Dec-07 19:30N 38°01' E 023°36'0 0.0
2017-Dec-07 18:57N 38°01' E 023°36'0 0.0
2017-Dec-07 18:30N 38°01' E 023°36'0 0.0
2017-Dec-07 18:00N 38°01' E 023°36'0 0.0
2017-Dec-07 17:30N 38°01' E 023°36'0 0.0
2017-Dec-07 17:00N 38°01' E 023°36'0 0.0
2017-Dec-07 16:30N 38°01' E 023°36'0 0.0
2017-Dec-07 16:00N 38°01' E 023°36'0 0.0
2017-Dec-07 15:27N 38°01' E 023°36'0 0.0
2017-Dec-07 15:00N 38°01' E 023°36'0 0.0
2017-Dec-07 14:30N 38°01' E 023°36'0 0.0
2017-Dec-07 14:00N 38°01' E 023°36'0 0.0
2017-Dec-07 13:30N 38°01' E 023°36'0 0.0
2017-Dec-07 12:57N 38°01' E 023°36'0 0.0
2017-Dec-07 12:30N 38°01' E 023°36'0 0.0
2017-Dec-07 12:00N 38°01' E 023°36'0 0.0
2017-Dec-07 11:30N 38°01' E 023°36'0 0.0
2017-Dec-07 11:00N 38°01' E 023°36'0 0.0
2017-Dec-07 10:30N 38°01' E 023°36'0 0.0
2017-Dec-07 10:00N 38°01' E 023°36'0 0.0
2017-Dec-07 09:30N 38°01' E 023°36'0 0.0
2017-Dec-07 08:57N 38°01' E 023°36'0 0.0
2017-Dec-07 08:27N 38°01' E 023°36'0 0.0
2017-Dec-07 08:00N 38°01' E 023°36'0 0.0
2017-Dec-07 07:24N 38°01' E 023°36'0 0.0
2017-Dec-07 06:57N 38°01' E 023°36'0 0.0
2017-Dec-07 06:30N 38°01' E 023°36'0 0.0
2017-Dec-07 06:00N 38°01' E 023°36'0 0.0
2017-Dec-07 05:27N 38°01' E 023°36'0 0.0
2017-Dec-07 05:00N 38°01' E 023°36'0 0.0
2017-Dec-07 04:30N 38°01' E 023°36'0 0.0
2017-Dec-07 04:00N 38°01' E 023°36'0 0.0
2017-Dec-07 03:30N 38°01' E 023°36'0 0.0
2017-Dec-07 03:00N 38°01' E 023°36'0 0.0
2017-Dec-07 02:27N 38°01' E 023°36'0 0.0
2017-Dec-07 02:00N 38°01' E 023°36'0 0.0
2017-Dec-07 01:30N 38°01' E 023°36'0 0.0
2017-Dec-07 01:00N 38°01' E 023°36'0 0.0
2017-Dec-07 00:31N 38°01' E 023°36'0 0.0
2017-Dec-07 00:00N 38°01' E 023°36'0 0.0
2017-Dec-06 23:30N 38°01' E 023°36'0 0.0
2017-Dec-06 23:00N 38°01' E 023°36'0 0.0
2017-Dec-06 22:30N 38°01' E 023°36'0 0.0
2017-Dec-06 21:57N 38°01' E 023°36'0 0.0
2017-Dec-06 21:27N 38°01' E 023°36'0 0.0
2017-Dec-06 21:00N 38°01' E 023°36'  
2017-Dec-04 10:23N 37°28' E 023°54'0 0.0
2017-Dec-04 09:59N 37°28' E 023°54'0 0.0
2017-Dec-04 09:29N 37°28' E 023°54'0 0.0
2017-Dec-04 08:59N 37°28' E 023°54'0 0.0
2017-Dec-04 08:29N 37°28' E 023°54'0 0.1
2017-Dec-04 07:59N 37°28' E 023°54'0 0.1
2017-Dec-04 07:29N 37°28' E 023°54'0 0.0
2017-Dec-04 06:59N 37°28' E 023°54'0 0.1
2017-Dec-04 06:29N 37°28' E 023°54'0 0.1
2017-Dec-04 05:59N 37°28' E 023°54'0 0.1
2017-Dec-04 05:29N 37°28' E 023°54'0 0.0
2017-Dec-04 04:56N 37°28' E 023°54'0 0.0
2017-Dec-04 04:29N 37°28' E 023°54'0 0.0
2017-Dec-04 03:59N 37°28' E 023°54'0 0.0
2017-Dec-04 03:29N 37°28' E 023°54'0 0.1
2017-Dec-04 02:59N 37°28' E 023°54'0 0.0
2017-Dec-04 02:29N 37°28' E 023°54'0 0.0
2017-Dec-04 01:59N 37°28' E 023°54'0 0.0
2017-Dec-04 01:29N 37°28' E 023°54'0 0.0
2017-Dec-04 00:59N 37°28' E 023°54'0 0.0
2017-Dec-04 00:29N 37°28' E 023°54'0 0.0
2017-Dec-03 23:59N 37°28' E 023°54'0 0.1
2017-Dec-03 23:29N 37°28' E 023°54'0 0.0
2017-Dec-03 22:59N 37°28' E 023°54'0 0.0
2017-Dec-03 22:29N 37°28' E 023°54'0 0.0
2017-Dec-03 21:59N 37°28' E 023°54'0 0.1
2017-Dec-03 21:29N 37°28' E 023°54'0 0.1
2017-Dec-03 20:59N 37°28' E 023°54'0 0.1
2017-Dec-03 20:29N 37°28' E 023°54'0 0.0
2017-Dec-03 19:59N 37°28' E 023°54'0 0.0
2017-Dec-03 19:29N 37°28' E 023°54'0 0.0
2017-Dec-03 18:59N 37°28' E 023°54'0 0.0
2017-Dec-03 18:29N 37°28' E 023°54'0 0.0
2017-Dec-03 17:59N 37°28' E 023°54'  
Track history (hours):
 
Tides and Currents Weather Stations Pressure Air Temp Water Temp Dewpoint Dewpoint Depression Visibility Wind Speed Wind Dir Waves Ship Positions

Seadelta

Last reported at 2017-Dec-13 17:31 UTC. Time now 2017-Dec-16 13:02 UTC.
Position N 35°38' E 032°06'.

Length 250 m; draft 8.4 m.

Type: Tanker. MMSI: 229700000.

Date/timePositionNaut miles runAvg speedWind from/ knotsBaromVisibWave heightAir tempDewpointWater temp
2017-Dec-13 17:31N 35°38' E 032°06'411.9
2017-Dec-13 17:11N 35°39' E 032°11'312.1
2017-Dec-13 16:54N 35°40' E 032°15'3712.3
2017-Dec-13 13:53N 35°47' E 032°60'  
2017-Dec-09 09:53N 35°37' E 026°05'411.6
2017-Dec-09 09:30N 35°39' E 026°01'611.8
2017-Dec-09 09:00N 35°43' E 025°55'611.6
2017-Dec-09 08:31N 35°46' E 025°49'611.5
2017-Dec-09 08:00N 35°49' E 025°43'612.2
2017-Dec-09 07:30N 35°52' E 025°36'815.3
2017-Dec-09 07:00N 35°56' E 025°28'815.4
2017-Dec-09 06:30N 36°01' E 025°20'713.3
2017-Dec-09 06:00N 36°04' E 025°14'611.8
2017-Dec-09 05:30N 36°07' E 025°07'611.9
2017-Dec-09 05:00N 36°11' E 025°01'611.9
2017-Dec-09 04:30N 36°14' E 024°55'611.8
2017-Dec-09 04:00N 36°17' E 024°49'611.8
2017-Dec-09 03:30N 36°20' E 024°43'611.6
2017-Dec-09 03:00N 36°24' E 024°37'611.6
2017-Dec-09 02:30N 36°27' E 024°31'611.8
2017-Dec-09 02:00N 36°30' E 024°25'612.0
2017-Dec-09 01:30N 36°33' E 024°18'611.5
2017-Dec-09 01:00N 36°36' E 024°12'611.7
2017-Dec-09 00:30N 36°41' E 024°09'611.9
2017-Dec-09 00:00N 36°47' E 024°06'611.8
2017-Dec-08 23:30N 36°52' E 024°02'611.8
2017-Dec-08 23:00N 36°57' E 023°59'611.9
2017-Dec-08 22:30N 37°03' E 023°56'611.9
2017-Dec-08 22:00N 37°08' E 023°53'611.8
2017-Dec-08 21:29N 37°13' E 023°49'711.9
2017-Dec-08 20:54N 37°20' E 023°46'1111.7
2017-Dec-08 19:59N 37°30' E 023°43'511.4
2017-Dec-08 19:30N 37°36' E 023°42'611.6
2017-Dec-08 19:00N 37°41' E 023°41'611.6
2017-Dec-08 18:30N 37°47' E 023°38'612.4
2017-Dec-08 18:01N 37°51' E 023°32'2 3.2
2017-Dec-08 17:31N 37°52' E 023°31'0 0.2
2017-Dec-08 16:58N 37°53' E 023°31'0 0.3
2017-Dec-08 16:28N 37°53' E 023°31'0 0.1
2017-Dec-08 15:58N 37°53' E 023°31'0 0.0
2017-Dec-08 15:28N 37°53' E 023°31'0 0.1
2017-Dec-08 14:58N 37°53' E 023°31'0 0.1
2017-Dec-08 14:28N 37°53' E 023°31'0 0.1
2017-Dec-08 13:58N 37°53' E 023°31'0 0.1
2017-Dec-08 13:28N 37°53' E 023°31'0 0.1
2017-Dec-08 12:58N 37°53' E 023°31'0 0.0
2017-Dec-08 12:28N 37°53' E 023°31'0 0.2
2017-Dec-08 11:58N 37°53' E 023°31'0 0.3
2017-Dec-08 11:28N 37°53' E 023°31'0 0.1
2017-Dec-08 11:00N 37°52' E 023°31'0 0.1
2017-Dec-08 10:30N 37°52' E 023°31'0 0.6
2017-Dec-08 10:00N 37°52' E 023°32'2 4.3
2017-Dec-08 09:30N 37°51' E 023°34'4 8.1
2017-Dec-08 09:00N 37°55' E 023°37'5 9.1
2017-Dec-08 08:30N 37°58' E 023°33'4 8.1
2017-Dec-08 08:00N 38°01' E 023°36'0 0.0
2017-Dec-08 07:30N 38°01' E 023°36'0 0.0
2017-Dec-08 07:00N 38°01' E 023°36'0 0.0
2017-Dec-08 06:30N 38°01' E 023°36'0 0.0
2017-Dec-08 06:00N 38°01' E 023°36'0 0.0
2017-Dec-08 05:30N 38°01' E 023°36'0 0.0
2017-Dec-08 05:00N 38°01' E 023°36'0 0.0
2017-Dec-08 04:30N 38°01' E 023°36'0 0.0
2017-Dec-08 04:00N 38°01' E 023°36'0 0.0
2017-Dec-08 03:30N 38°01' E 023°36'0 0.0
2017-Dec-08 03:00N 38°01' E 023°36'0 0.0
2017-Dec-08 02:30N 38°01' E 023°36'0 0.0
2017-Dec-08 01:57N 38°01' E 023°36'0 0.0
2017-Dec-08 01:30N 38°01' E 023°36'0 0.0
2017-Dec-08 01:00N 38°01' E 023°36'0 0.0
2017-Dec-08 00:30N 38°01' E 023°36'0 0.0
2017-Dec-08 00:00N 38°01' E 023°36'0 0.0
2017-Dec-07 23:27N 38°01' E 023°36'0 0.0
2017-Dec-07 22:57N 38°01' E 023°36'0 0.0
2017-Dec-07 22:30N 38°01' E 023°36'0 0.0
2017-Dec-07 22:00N 38°01' E 023°36'0 0.0
2017-Dec-07 21:27N 38°01' E 023°36'0 0.0
2017-Dec-07 21:00N 38°01' E 023°36'0 0.0
2017-Dec-07 20:27N 38°01' E 023°36'0 0.0
2017-Dec-07 20:00N 38°01' E 023°36'0 0.0
2017-Dec-07 19:30N 38°01' E 023°36'0 0.0
2017-Dec-07 18:57N 38°01' E 023°36'0 0.0
2017-Dec-07 18:30N 38°01' E 023°36'0 0.0
2017-Dec-07 18:00N 38°01' E 023°36'0 0.0
2017-Dec-07 17:30N 38°01' E 023°36'0 0.0
2017-Dec-07 17:00N 38°01' E 023°36'0 0.0
2017-Dec-07 16:30N 38°01' E 023°36'0 0.0
2017-Dec-07 16:00N 38°01' E 023°36'0 0.0
2017-Dec-07 15:27N 38°01' E 023°36'0 0.0
2017-Dec-07 15:00N 38°01' E 023°36'0 0.0
2017-Dec-07 14:30N 38°01' E 023°36'0 0.0
2017-Dec-07 14:00N 38°01' E 023°36'0 0.0
2017-Dec-07 13:30N 38°01' E 023°36'0 0.0
2017-Dec-07 12:57N 38°01' E 023°36'0 0.0
2017-Dec-07 12:30N 38°01' E 023°36'0 0.0
2017-Dec-07 12:00N 38°01' E 023°36'0 0.0
2017-Dec-07 11:30N 38°01' E 023°36'0 0.0
2017-Dec-07 11:00N 38°01' E 023°36'0 0.0
2017-Dec-07 10:30N 38°01' E 023°36'0 0.0
2017-Dec-07 10:00N 38°01' E 023°36'0 0.0
2017-Dec-07 09:30N 38°01' E 023°36'0 0.0
2017-Dec-07 08:57N 38°01' E 023°36'0 0.0
2017-Dec-07 08:27N 38°01' E 023°36'0 0.0
2017-Dec-07 08:00N 38°01' E 023°36'0 0.0
2017-Dec-07 07:24N 38°01' E 023°36'0 0.0
2017-Dec-07 06:57N 38°01' E 023°36'0 0.0
2017-Dec-07 06:30N 38°01' E 023°36'0 0.0
2017-Dec-07 06:00N 38°01' E 023°36'0 0.0
2017-Dec-07 05:27N 38°01' E 023°36'0 0.0
2017-Dec-07 05:00N 38°01' E 023°36'0 0.0
2017-Dec-07 04:30N 38°01' E 023°36'0 0.0
2017-Dec-07 04:00N 38°01' E 023°36'0 0.0
2017-Dec-07 03:30N 38°01' E 023°36'0 0.0
2017-Dec-07 03:00N 38°01' E 023°36'0 0.0
2017-Dec-07 02:27N 38°01' E 023°36'0 0.0
2017-Dec-07 02:00N 38°01' E 023°36'0 0.0
2017-Dec-07 01:30N 38°01' E 023°36'0 0.0
2017-Dec-07 01:00N 38°01' E 023°36'0 0.0
2017-Dec-07 00:31N 38°01' E 023°36'0 0.0
2017-Dec-07 00:00N 38°01' E 023°36'0 0.0
2017-Dec-06 23:30N 38°01' E 023°36'0 0.0
2017-Dec-06 23:00N 38°01' E 023°36'0 0.0
2017-Dec-06 22:30N 38°01' E 023°36'0 0.0
2017-Dec-06 21:57N 38°01' E 023°36'0 0.0
2017-Dec-06 21:27N 38°01' E 023°36'0 0.0
2017-Dec-06 21:00N 38°01' E 023°36'  
2017-Dec-04 10:23N 37°28' E 023°54'0 0.0
2017-Dec-04 09:59N 37°28' E 023°54'0 0.0
2017-Dec-04 09:29N 37°28' E 023°54'0 0.0
2017-Dec-04 08:59N 37°28' E 023°54'0 0.0
2017-Dec-04 08:29N 37°28' E 023°54'0 0.1
2017-Dec-04 07:59N 37°28' E 023°54'0 0.1
2017-Dec-04 07:29N 37°28' E 023°54'0 0.0
2017-Dec-04 06:59N 37°28' E 023°54'0 0.1
2017-Dec-04 06:29N 37°28' E 023°54'0 0.1
2017-Dec-04 05:59N 37°28' E 023°54'0 0.1
2017-Dec-04 05:29N 37°28' E 023°54'0 0.0
2017-Dec-04 04:56N 37°28' E 023°54'0 0.0
2017-Dec-04 04:29N 37°28' E 023°54'0 0.0
2017-Dec-04 03:59N 37°28' E 023°54'0 0.0
2017-Dec-04 03:29N 37°28' E 023°54'0 0.1
2017-Dec-04 02:59N 37°28' E 023°54'0 0.0
2017-Dec-04 02:29N 37°28' E 023°54'0 0.0
2017-Dec-04 01:59N 37°28' E 023°54'0 0.0
2017-Dec-04 01:29N 37°28' E 023°54'0 0.0
2017-Dec-04 00:59N 37°28' E 023°54'0 0.0
2017-Dec-04 00:29N 37°28' E 023°54'0 0.0
2017-Dec-03 23:59N 37°28' E 023°54'0 0.1
2017-Dec-03 23:29N 37°28' E 023°54'0 0.0
2017-Dec-03 22:59N 37°28' E 023°54'0 0.0
2017-Dec-03 22:29N 37°28' E 023°54'0 0.0
2017-Dec-03 21:59N 37°28' E 023°54'0 0.1
2017-Dec-03 21:29N 37°28' E 023°54'0 0.1
2017-Dec-03 20:59N 37°28' E 023°54'0 0.1
2017-Dec-03 20:29N 37°28' E 023°54'0 0.0
2017-Dec-03 19:59N 37°28' E 023°54'0 0.0
2017-Dec-03 19:29N 37°28' E 023°54'0 0.0
2017-Dec-03 18:59N 37°28' E 023°54'0 0.0
2017-Dec-03 18:29N 37°28' E 023°54'0 0.0
2017-Dec-03 17:59N 37°28' E 023°54'  

Dump ship's entire track history